Nearby METAR Reports

 

KSNK - Snyder/Winston, Texas, USA
Distance from station: SSE 25mi, 41km
Updated: Mon, 01-Mar-2021 6:55am CST
Overcast
Overcast
 Wind from NNE
Wind: NNE 17 mph , 28 km/h, Gust: 25 mph , 41 km/h
Temperature: 36°F , 2°C
Wind Chill: 26°F , -3°C
Dew Point: 28°F , -2°C
Humidity: 75%
Barometer: 30.24 inHg , 1024 hPa
Clouds: Overcast
Visibility: 10 miles , 16 km
Cloud details: Overcast 3500 ft
2021/03/01 12:55 KSNK 011255Z AUTO 03015G22KT 10SM OVC035 02/M02 A3024 RMK AO2 P0001 T00231018
KSWW - Sweetwater, Texas, USA
Distance from station: SE 56mi, 90km
Updated: Mon, 01-Mar-2021 6:55am CST
Mostly cloudy
Mostly cloudy
 Wind from N
Wind: N 10 mph , 17 km/h, Gust: 24 mph , 39 km/h
Temperature: 39°F , 4°C
Wind Chill: 32°F , 0°C
Dew Point: 32°F , 0°C
Humidity: 75%
Barometer: 30.26 inHg , 1024.7 hPa
Clouds: Mostly cloudy
Visibility: 10 miles , 16 km
Cloud details: Mostly cloudy 2500 ft
2021/03/01 12:55 KSWW 011255Z AUTO 36009G21KT 10SM BKN025 04/00 A3026 RMK AO2 T00390000
 
KLBB - Lubbock, Texas, USA
Distance from station: NW 59mi, 94km
Updated: Mon, 01-Mar-2021 6:53am CST
Overcast
Overcast
 Wind from NE
Wind: NE 15 mph , 24 km/h
Temperature: 39°F , 4°C
Wind Chill: 31°F , -1°C
Dew Point: 12°F , -11°C
Humidity: 33%
Barometer: 30.25 inHg , 1024.4 hPa
Clouds: Overcast
Visibility: 10 miles , 16 km
Cloud details: Overcast 4900 ft
2021/03/01 12:53 KLBB 011253Z 05013KT 10SM OVC049 04/M11 A3025 RMK AO2 SLP237 T00391106
KPVW - Plainview, Texas, USA
Distance from station: NNW 85mi, 137km
Updated: Mon, 01-Mar-2021 6:55am CST
Overcast
Overcast
 Wind from NE
Wind: NE 12 mph , 19 km/h
Temperature: 36°F , 2°C
Wind Chill: 28°F , -2°C
Dew Point: 16°F , -9°C
Humidity: 44%
Barometer: 30.27 inHg , 1025.1 hPa
Clouds: Overcast
Visibility: 10 miles , 16 km
Cloud details: Overcast 10000 ft
2021/03/01 12:55 KPVW 011255Z AUTO 04010KT 10SM OVC100 02/M09 A3027 RMK AO2 T00151092
 
KDYS - Dyess Afb/Abilen, Texas, USA
Distance from station: ESE 88mi, 141km
Updated: Mon, 01-Mar-2021 6:56am CST
Overcast
Overcast
 Wind from NE
Wind: NE 12 mph , 19 km/h
Temperature: 41°F , 5°C
Wind Chill: 34°F , 1°C
Dew Point: 30°F , -1°C
Humidity: 66%
Barometer: 30.21 inHg , 1023 hPa
Clouds: Overcast
Visibility: 10 miles , 16 km
Cloud details: Overcast 6000 ft
2021/03/01 12:56 KDYS 011256Z AUTO 04010KT 10SM OVC060 05/M01 A3021 RMK AO2 SLP228 T00461006
KGNC - Seminole, Texas, USA
Distance from station: WSW 89mi, 144km
Updated: Mon, 01-Mar-2021 6:55am CST
Partly cloudy
Partly cloudy
 Wind from NE
Wind: NE 10 mph , 17 km/h
Temperature: 39°F , 4°C
Wind Chill: 32°F , 0°C
Dew Point: 16°F , -9°C
Humidity: 39%
Barometer: 30.29 inHg , 1025.7 hPa
Clouds: Partly cloudy
Visibility: 10 miles , 16 km
Cloud details: Partly cloudy 7000 ft
2021/03/01 12:55 KGNC 011255Z AUTO 05009KT 10SM SCT070 04/M09 A3029 RMK AO2 T00411089
 
KE11 - Andrews, Texas, USA
Distance from station: WSW 93mi, 149km
Updated: Mon, 01-Mar-2021 6:55am CST
Overcast
Overcast
 Wind from ENE
Wind: ENE 15 mph , 24 km/h
Temperature: 39°F , 4°C
Wind Chill: 31°F , -1°C
Dew Point: 18°F , -8°C
Humidity: 42%
Barometer: 30.25 inHg , 1024.4 hPa
Clouds: Overcast
Visibility: 10 miles , 16 km
Cloud details: Overcast 4900 ft
2021/03/01 12:55 KE11 011255Z AUTO 06013KT 10SM OVC049 04/M08 A3025 RMK AO2 T00381076
KABI - Abilene, Texas, USA
Distance from station: ESE 96mi, 154km
Updated: Mon, 01-Mar-2021 6:52am CST
Overcast
Overcast
 Wind from ENE
Wind: ENE 9 mph , 15 km/h, Gust: 26 mph , 43 km/h
Temperature: 41°F , 5°C
Wind Chill: 35°F , 2°C
Dew Point: 36°F , 2°C
Humidity: 81%
Barometer: 30.19 inHg , 1022.4 hPa
Clouds: Overcast
Visibility: 10 miles , 16 km
Cloud details: Overcast 6000 ft
2021/03/01 12:52 KABI 011252Z 06008G23KT 10SM OVC060 05/02 A3019 RMK AO2 PK WND 06026/1227 SLP220 T00500017
 
KMAF - Midland, Texas, USA
Distance from station: SW 96mi, 154km
Updated: Mon, 01-Mar-2021 6:53am CST
Overcast
Overcast
 Wind from NE
Wind: NE 16 mph , 26 km/h
Temperature: 39°F , 4°C
Wind Chill: 30°F , -1°C
Dew Point: 28°F , -2°C
Humidity: 65%
Barometer: 30.24 inHg , 1024 hPa
Clouds: Overcast
Visibility: 10 miles , 16 km
Cloud details: Partly cloudy 4000 ft
Overcast 6000 ft
2021/03/01 12:53 KMAF 011253Z 05014KT 10SM SCT040 OVC060 04/M02 A3024 RMK AO2 RAB08E28 SLP228 P0001 T00391022
KCDS - Childress, Texas, USA
Distance from station: NNE 110mi, 177km
Updated: Mon, 01-Mar-2021 6:53am CST
Overcast
Overcast
 Wind from NNE
Wind: NNE 12 mph , 19 km/h
Temperature: 37°F , 3°C
Wind Chill: 29°F , -2°C
Dew Point: 21°F , -6°C
Humidity: 52%
Barometer: 30.31 inHg , 1026.4 hPa
Clouds: Overcast
Visibility: 10 miles , 16 km
Cloud details: Overcast 11000 ft
2021/03/01 12:53 KCDS 011253Z AUTO 03010KT 10SM OVC110 03/M06 A3031 RMK AO2 SLP263 T00281056
 
KSJT - San Angelo, Texas, USA
Distance from station: SSE 121mi, 194km
Updated: Mon, 01-Mar-2021 6:51am CST
Overcast
Overcast
 Wind from NE
Wind: NE 13 mph , 20 km/h
Temperature: 45°F , 7°C
Wind Chill: 39°F , 4°C
Dew Point: 32°F , 0°C
Humidity: 61%
Barometer: 30.20 inHg , 1022.7 hPa
Clouds: Overcast
Visibility: 10 miles , 16 km
Cloud details: Overcast 6000 ft
2021/03/01 12:51 KSJT 011251Z 05011KT 10SM OVC060 07/00 A3020 RMK AO2 SLP224 T00720000
KHOB - Hobbs/Lea Co., New Mexico, USA
Distance from station: WSW 122mi, 196km
Updated: Mon, 01-Mar-2021 6:50am CST
Light snow, Clear
Light snow, Clear
 Wind from NNE
Wind: NNE 10 mph , 17 km/h, Gust: 17 mph , 28 km/h
Temperature: 39°F , 4°C
Wind Chill: 32°F , 0°C
Dew Point: 19°F , -7°C
Humidity: 45%
Barometer: 30.24 inHg , 1024 hPa
Summary: Light Snow
Clouds: Clear
Visibility: 9 miles , 14 km
2021/03/01 12:50 KHOB 011250Z 02009G15KT 9SM -SN SKC 04/M07 A3024
 
KCOM - Coleman Muni, Texas, USA
Distance from station: SE 131mi, 212km
Updated: Mon, 01-Mar-2021 6:55am CST
Overcast
Overcast
 Wind from NNE
Wind: NNE 13 mph , 20 km/h
Temperature: 43°F , 6°C
Wind Chill: 36°F , 2°C
Dew Point: 34°F , 1°C
Humidity: 71%
Barometer: 30.20 inHg , 1022.7 hPa
Clouds: Overcast
Visibility: 10 miles , 16 km
Cloud details: Overcast 6500 ft
2021/03/01 12:55 KCOM 011255Z AUTO 03011KT 10SM OVC065 06/01 A3020 RMK AO2 T00620014
KBKD - Breckenridge, Texas, USA
Distance from station: E 134mi, 215km
Updated: Mon, 01-Mar-2021 6:55am CST
Overcast
Overcast
 Wind from NNE
Wind: NNE 13 mph , 20 km/h, Gust: 16 mph , 26 km/h
Temperature: 43°F , 6°C
Wind Chill: 36°F , 2°C
Dew Point: 36°F , 2°C
Humidity: 76%
Barometer: 30.19 inHg , 1022.4 hPa
Clouds: Overcast
Visibility: 10 miles , 16 km
Cloud details: Partly cloudy 5000 ft
Overcast 6500 ft
2021/03/01 12:55 KBKD 011255Z AUTO 02011G14KT 10SM SCT050 OVC065 06/02 A3019 RMK AO2 T00600023
 
KF05 - Vernon Wilbarger, Texas, USA
Distance from station: NE 137mi, 220km
Updated: Mon, 01-Mar-2021 6:55am CST
Partly cloudy
Partly cloudy
 Wind from NNE
Wind: NNE 7 mph , 11 km/h
Temperature: 39°F , 4°C
Wind Chill: 34°F , 1°C
Dew Point: 30°F , -1°C
Humidity: 70%
Barometer: 30.32 inHg , 1026.8 hPa
Clouds: Partly cloudy
Visibility: 10 miles , 16 km
Cloud details: Partly cloudy 12000 ft
2021/03/01 12:55 KF05 011255Z AUTO 02006KT 10SM SCT120 04/M01 A3032 RMK AO2 T00381010